createdAt,value
2019-06-10T00:03:42.285Z,21.01
2019-06-10T00:08:45.150Z,20.91
2019-06-10T00:13:47.874Z,20.75
2019-06-10T00:18:51.066Z,20.71
2019-06-10T00:23:54.039Z,20.69
2019-06-10T00:28:57.919Z,20.62
2019-06-10T00:34:02.981Z,20.57
2019-06-10T00:39:07.318Z,20.49
2019-06-10T00:44:12.676Z,20.37
2019-06-10T00:49:15.681Z,20.45
2019-06-10T00:54:18.461Z,20.47
2019-06-10T00:59:22.130Z,20.50
2019-06-10T01:04:25.012Z,19.99
2019-06-10T01:09:27.721Z,20.49
2019-06-10T01:14:31.997Z,20.46
2019-06-10T01:19:34.872Z,20.27
2019-06-10T01:24:37.594Z,20.07
2019-06-10T01:29:41.609Z,19.80
2019-06-10T01:34:44.431Z,19.86
2019-06-10T01:39:47.183Z,19.96
2019-06-10T01:44:50.656Z,19.92
2019-06-10T01:49:53.542Z,19.88
2019-06-10T01:54:56.685Z,20.02
2019-06-10T02:00:00.969Z,19.91
2019-06-10T02:05:04.551Z,19.77
2019-06-10T02:10:08.892Z,19.71
2019-06-10T02:15:15.216Z,19.62
2019-06-10T02:20:19.379Z,19.63
2019-06-10T02:25:22.975Z,19.71
2019-06-10T02:30:39.992Z,19.86
2019-06-10T02:35:44.157Z,19.85
2019-06-10T02:40:36.509Z,19.88
2019-06-10T02:45:39.553Z,19.88
2019-06-10T02:51:04.723Z,19.66
2019-06-10T02:56:08.123Z,19.67
2019-06-10T03:01:14.690Z,19.57
2019-06-10T03:06:17.936Z,19.52
2019-06-10T03:11:24.261Z,19.72
2019-06-10T03:16:32.907Z,19.73
2019-06-10T03:21:35.441Z,19.70
2019-06-10T03:26:38.184Z,19.73
2019-06-10T03:31:46.406Z,19.63
2019-06-10T03:36:45.601Z,19.61
2019-06-10T03:41:48.334Z,19.54
2019-06-10T03:46:52.361Z,19.47
2019-06-10T03:51:55.216Z,19.58
2019-06-10T03:56:57.935Z,19.56
2019-06-10T04:02:02.354Z,19.49
2019-06-10T04:07:05.185Z,19.39
2019-06-10T04:12:07.905Z,19.28
2019-06-10T04:17:12.940Z,19.51
2019-06-10T04:22:15.246Z,19.64
2019-06-10T04:27:17.959Z,19.72
2019-06-10T04:32:22.764Z,19.89
2019-06-10T04:37:27.415Z,19.82
2019-06-10T04:42:29.931Z,20.02
2019-06-10T04:47:33.383Z,20.02
2019-06-10T04:52:36.218Z,19.82
2019-06-10T04:57:38.943Z,19.60
2019-06-10T05:02:43.087Z,19.84
2019-06-10T05:07:46.058Z,20.06
2019-06-10T05:12:48.771Z,20.27
2019-06-10T05:17:52.709Z,20.35
2019-06-10T05:22:55.610Z,20.26
2019-06-10T05:27:58.338Z,20.19
2019-06-10T05:33:03.001Z,20.15
2019-06-10T05:38:05.675Z,20.04
2019-06-10T05:43:08.401Z,20.05
2019-06-10T05:48:16.508Z,20.13
2019-06-10T05:53:15.817Z,20.55
2019-06-10T05:58:19.328Z,21.11
2019-06-10T06:03:23.018Z,21.33
2019-06-10T06:08:27.094Z,21.58
2019-06-10T06:13:32.705Z,21.50
2019-06-10T06:18:36.424Z,21.64
2019-06-10T06:23:39.128Z,21.88
2019-06-10T06:28:43.022Z,21.83
2019-06-10T06:33:46.106Z,21.95
2019-06-10T06:38:48.822Z,21.80
2019-06-10T06:43:53.152Z,21.74
2019-06-10T06:48:56.042Z,21.93
2019-06-10T06:53:58.791Z,22.00
2019-06-10T06:59:02.528Z,21.97
2019-06-10T07:04:05.440Z,21.83
2019-06-10T07:09:08.438Z,22.59
2019-06-10T07:14:13.371Z,22.68
2019-06-10T07:19:15.865Z,22.86
2019-06-10T07:24:18.594Z,22.97
2019-06-10T07:29:22.602Z,23.08
2019-06-10T07:34:25.522Z,23.43
2019-06-10T07:39:28.239Z,24.31
2019-06-10T07:44:33.003Z,24.84
2019-06-10T07:49:35.581Z,25.04
2019-06-10T07:54:39.243Z,25.22
2019-06-10T07:59:44.568Z,25.70
2019-06-10T08:04:46.899Z,25.85
2019-06-10T08:09:49.637Z,26.36
2019-06-10T08:14:53.292Z,26.17
2019-06-10T08:19:56.271Z,26.17
2019-06-10T08:24:58.994Z,26.11
2019-06-10T08:30:15.519Z,25.98
2019-06-10T08:35:07.082Z,25.44
2019-06-10T08:40:12.290Z,25.52
2019-06-10T08:45:14.778Z,25.84
2019-06-10T08:50:21.343Z,25.98
2019-06-10T08:55:23.001Z,25.71
2019-06-10T09:00:26.027Z,26.32
2019-06-10T09:05:28.911Z,26.45
2019-06-10T09:10:33.937Z,26.25
2019-06-10T09:15:36.647Z,26.36
2019-06-10T09:20:41.468Z,26.50
2019-06-10T09:25:47.540Z,26.53
2019-06-10T09:30:54.095Z,27.01
2019-06-10T09:35:55.055Z,27.43
2019-06-10T09:41:02.174Z,27.59
2019-06-10T09:46:03.597Z,27.69
2019-06-10T09:51:06.485Z,27.66
2019-06-10T09:56:09.204Z,27.58
2019-06-10T10:01:13.314Z,27.54
2019-06-10T10:06:16.278Z,27.80
2019-06-10T10:11:21.273Z,27.70
2019-06-10T10:16:25.158Z,27.75
2019-06-10T10:21:27.877Z,28.11
2019-06-10T10:26:30.624Z,28.20
2019-06-10T10:31:33.331Z,28.15
2019-06-10T10:36:36.025Z,27.98
2019-06-10T10:41:38.775Z,28.25
2019-06-10T10:46:42.826Z,28.59
2019-06-10T10:51:46.926Z,29.00
2019-06-10T10:56:55.182Z,28.85
2019-06-10T11:01:54.750Z,29.36
2019-06-10T11:07:00.398Z,29.88
2019-06-10T11:12:03.569Z,29.30
2019-06-10T11:17:06.308Z,29.64
2019-06-10T11:22:09.016Z,29.50
2019-06-10T11:27:12.713Z,29.77
2019-06-10T11:32:15.588Z,30.47
2019-06-10T11:37:18.329Z,30.16
2019-06-10T11:42:23.341Z,31.26
2019-06-10T11:47:25.908Z,31.18
2019-06-10T11:52:28.630Z,30.80
2019-06-10T11:57:32.931Z,31.75
2019-06-10T12:02:35.796Z,32.46
2019-06-10T12:07:38.502Z,32.35
2019-06-10T12:12:43.315Z,31.77
2019-06-10T12:17:51.072Z,31.02
2019-06-10T12:22:54.816Z,30.39
2019-06-10T12:27:59.160Z,30.29
2019-06-10T12:33:02.986Z,29.70
2019-06-10T12:38:06.288Z,29.83
2019-06-10T12:43:09.137Z,30.09
2019-06-10T12:48:13.358Z,30.10
2019-06-10T12:53:16.923Z,30.10
2019-06-10T12:58:19.760Z,30.67
2019-06-10T13:03:23.665Z,30.65
2019-06-10T13:08:30.033Z,30.53
2019-06-10T13:13:32.882Z,31.14
2019-06-10T13:18:36.541Z,31.00
2019-06-10T13:23:39.280Z,30.69
2019-06-10T13:28:44.120Z,30.89
2019-06-10T13:33:46.717Z,30.52
2019-06-10T13:38:49.441Z,30.39
2019-06-10T13:43:52.804Z,30.44
2019-06-10T13:48:56.357Z,30.74
2019-06-10T13:53:59.085Z,30.72
2019-06-10T13:59:04.084Z,30.93
2019-06-10T14:04:13.892Z,31.08
2019-06-10T14:09:15.705Z,31.32
2019-06-10T14:14:18.338Z,31.63
2019-06-10T14:19:23.064Z,31.94
2019-06-10T14:24:25.789Z,31.61
2019-06-10T14:29:28.519Z,30.73
2019-06-10T14:34:32.591Z,30.75
2019-06-10T14:39:35.445Z,31.31
2019-06-10T14:44:38.297Z,30.94
2019-06-10T14:49:42.471Z,30.50
2019-06-10T14:54:45.397Z,30.39
2019-06-10T14:59:48.122Z,30.39
2019-06-10T15:04:53.130Z,30.48
2019-06-10T15:09:55.795Z,30.51
2019-06-10T15:14:58.668Z,30.61
2019-06-10T15:20:03.624Z,30.38
2019-06-10T15:25:06.637Z,30.14
2019-06-10T15:30:14.587Z,30.15
2019-06-10T15:35:18.635Z,30.00
2019-06-10T15:40:23.068Z,29.76
2019-06-10T15:45:26.044Z,29.81
2019-06-10T15:50:28.761Z,29.77
2019-06-10T15:55:55.428Z,29.70
2019-06-10T16:00:36.174Z,29.43
2019-06-10T16:05:38.908Z,29.54
2019-06-10T16:10:42.833Z,29.10
2019-06-10T16:15:45.669Z,28.79
2019-06-10T16:20:48.403Z,28.25
2019-06-10T16:25:53.441Z,27.37
2019-06-10T16:30:55.861Z,26.56
2019-06-10T16:35:58.581Z,26.52
2019-06-10T16:41:03.520Z,26.43
2019-06-10T16:46:05.982Z,26.34
2019-06-10T16:51:08.794Z,26.09
2019-06-10T16:56:12.138Z,26.07
2019-06-10T17:01:15.064Z,26.03
2019-06-10T17:06:17.753Z,26.08
2019-06-10T17:11:21.422Z,26.43
2019-06-10T17:16:26.418Z,26.69
2019-06-10T17:21:34.013Z,27.21
2019-06-10T17:26:37.837Z,27.31
2019-06-10T17:31:38.956Z,27.45
2019-06-10T17:36:42.684Z,27.44
2019-06-10T17:41:45.527Z,27.13
2019-06-10T17:46:48.307Z,26.37
2019-06-10T17:51:52.573Z,25.51
2019-06-10T17:56:55.412Z,24.92
2019-06-10T18:01:58.149Z,24.92
2019-06-10T18:07:02.237Z,24.62
2019-06-10T18:12:05.417Z,25.23
2019-06-10T18:17:08.271Z,25.06
2019-06-10T18:22:12.618Z,24.81
2019-06-10T18:27:15.463Z,24.89
2019-06-10T18:32:18.292Z,25.05
2019-06-10T18:37:22.754Z,24.73
2019-06-10T18:42:26.606Z,24.58
2019-06-10T18:47:30.186Z,24.49
2019-06-10T18:52:32.975Z,24.42
2019-06-10T18:57:36.570Z,24.47
2019-06-10T19:02:40.395Z,24.33
2019-06-10T19:07:46.670Z,24.69
2019-06-10T19:12:47.788Z,24.91
2019-06-10T19:17:53.427Z,25.09
2019-06-10T19:22:55.345Z,25.18
2019-06-10T19:27:58.213Z,25.17
2019-06-10T19:33:02.495Z,25.13
2019-06-10T19:38:05.643Z,25.11
2019-06-10T19:43:08.362Z,25.05
2019-06-10T19:48:12.435Z,24.98
2019-06-10T19:53:15.211Z,24.99
2019-06-10T19:58:17.944Z,24.63
2019-06-10T20:03:22.298Z,24.54
2019-06-10T20:08:25.203Z,24.62
2019-06-10T20:13:27.999Z,24.58
2019-06-10T20:18:33.180Z,24.59
2019-06-10T20:23:37.316Z,24.72
2019-06-10T20:28:41.296Z,24.84
2019-06-10T20:33:44.816Z,24.90
2019-06-10T20:38:48.952Z,24.74
2019-06-10T20:43:55.440Z,24.50
2019-06-10T20:48:57.559Z,24.40
2019-06-10T20:54:02.504Z,24.22
2019-06-10T20:59:04.978Z,24.27
2019-06-10T21:04:08.227Z,24.28
2019-06-10T21:09:13.263Z,24.34
2019-06-10T21:14:15.866Z,24.35
2019-06-10T21:19:18.871Z,24.31
2019-06-10T21:24:23.177Z,24.17
2019-06-10T21:29:26.336Z,24.08
2019-06-10T21:34:29.362Z,23.98
2019-06-10T21:39:32.261Z,23.91
2019-06-10T21:44:34.993Z,23.87
2019-06-10T21:49:37.721Z,23.76
2019-06-10T21:54:42.543Z,23.82
2019-06-10T21:59:45.539Z,23.87
2019-06-10T22:04:49.435Z,23.78
2019-06-10T22:09:54.094Z,23.69
2019-06-10T22:14:56.765Z,23.68
2019-06-10T22:19:59.465Z,23.34
2019-06-10T22:25:02.966Z,23.51
2019-06-10T22:30:11.231Z,23.32
2019-06-10T22:35:12.314Z,23.36
2019-06-10T22:40:15.196Z,23.39
2019-06-10T22:45:17.902Z,23.41
2019-06-10T22:50:22.859Z,23.41
2019-06-10T22:55:25.244Z,23.33
2019-06-10T23:00:27.939Z,23.15
2019-06-10T23:05:33.115Z,23.02
2019-06-10T23:10:35.515Z,22.85
2019-06-10T23:15:38.256Z,22.64
2019-06-10T23:20:42.830Z,22.43
2019-06-10T23:25:45.581Z,22.41
2019-06-10T23:30:48.300Z,22.43
2019-06-10T23:35:52.401Z,22.38
2019-06-10T23:40:55.380Z,22.37
2019-06-10T23:45:59.260Z,22.33
2019-06-10T23:51:04.784Z,22.39
2019-06-10T23:56:06.680Z,22.38
